Surface/Atmospheric History
01/19/2019 23:19  to  1/20/2019 23:19
Change End Date:
To complete the export process:
1) Select all of the data below
2) Copy the data to the clipboard
3) Open a word processor such as Notepad
4) Paste the data into the word processor
5) Save the file

Date/Time (MST), SfStat, SfTemp, PvtTemp, SubTemp, AirTemp, RH, Dewpoint, AvgWindSpeed, GustWindSpeed, WindDirection, PrecipType, PrecipIntenisity
01/20/2019 23:11, Ice Watch , 27.7 , , 29, 26, 99, 26, 6, 7, N, Yes,
01/20/2019 23:06, Ice Watch , 27.7 , , 29, 26, 99, 26, 5, 7, N, Yes,
01/20/2019 23:01, Ice Watch , 27.9 , , 29, 26, 99, 26, 5, 7, N, Yes,
01/20/2019 22:51, Ice Watch , 27.7 , , 29, 26, 99, 26, 4, 7, N, Yes,
01/20/2019 22:51, Ice Watch , 27.7 , , 29, 26, 99, 26, 5, 7, N, Yes,
01/20/2019 22:41, Ice Watch , 28 , , 29, 26, 99, 26, 6, 7, N, Yes,
01/20/2019 22:31, Ice Watch , 28 , , 29, 26, 99, 26, 5, 7, NE, Yes,
01/20/2019 22:20, Ice Watch , 28 , , 29, 26, 99, 26, 7, 7, NE, Yes,
01/20/2019 22:10, Ice Watch , 28 , , 29, 27, 99, 27, 4, 6, NE, Yes,
01/20/2019 22:07, Ice Watch , 28.2 , , 29, 27, 99, 27, 4, 5, N, Yes,
01/20/2019 22:00, Ice Watch , 28.2 , , 29, 27, 99, 27, 4, 5, NE, Yes,
01/20/2019 21:50, Ice Watch , 28.2 , , 29, 27, 99, 27, 3, 5, N, Yes,
01/20/2019 21:40, Ice Watch , 28.2 , , 29, 27, 99, 27, 4, 5, NE, Yes,
01/20/2019 21:30, Ice Watch , 28.2 , , 29, 27, 99, 27, 5, 7, NE, Yes,
01/20/2019 21:22, Ice Watch , 28.4 , , 29, 27, 99, 27, 6, 7, NE, Yes,
01/20/2019 21:20, Ice Watch , 28.4 , , 29, 27, 99, 27, 6, 8, NE, Yes,
01/20/2019 21:10, Ice Watch , 28.4 , , 29, 27, 99, 27, 7, 9, NE, Yes,
01/20/2019 21:07, Ice Watch , 28.4 , , 29, 28, 99, 28, 7, 9, NE, Yes,
01/20/2019 21:00, Ice Watch , 28.6 , , 29, 28, 99, 28, 7, 9, NE, Yes,
01/20/2019 20:51, Ice Watch , 28.4 , , 29, 28, 99, 28, 6, 7, NE, Yes,
01/20/2019 20:50, Ice Watch , 28.6 , , 29, 28, 99, 28, 6, 7, NE, Yes,
01/20/2019 20:40, Ice Watch , 28.8 , , 29, 28, 99, 28, 6, 7, NE, Yes,
01/20/2019 20:36, Ice Watch , 28.6 , , 29, 28, 99, 28, 6, 7, NE, None, None
01/20/2019 20:30, Ice Watch , 28.8 , , 29, 28, 99, 28, 6, 9, NE, Yes,
01/20/2019 20:20, Ice Watch , 28.8 , , 29, 28, 99, 28, 6, 7, NE, Yes,
01/20/2019 20:10, Ice Watch , 28.8 , , 29, 28, 99, 28, 5, 8, NE, Yes,
01/20/2019 20:06, Ice Watch , 28.8 , , 29, 28, 99, 28, 5, 8, NE, Yes,
01/20/2019 20:00, Ice Watch , 28.8 , , 29, 28, 99, 28, 6, 7, NE, Yes,
01/20/2019 19:52, Ice Watch , 28.8 , , 29, 28, 99, 28, 6, 8, NE, Yes,
01/20/2019 19:50, Ice Watch , 28.8 , , 29, 28, 99, 28, 6, 8, NE, Yes,
01/20/2019 19:40, Ice Watch , 28.9 , , 29, 28, 99, 28, 7, 9, NE, Yes,
01/20/2019 19:30, Ice Watch , 28.9 , , 29, 28, 99, 28, 6, 9, NE, Yes,
01/20/2019 19:23, Ice Watch , 28.8 , , 29, 28, 99, 28, 7, 9, NE, Yes,
01/20/2019 19:20, Ice Warning , 28.9 , , 29, 28, 99, 28, 6, 7, NE, Yes,
01/20/2019 19:09, Ice Warning , 28.9 , , 29, 28, 99, 28, 6, 7, NE, Yes,
01/20/2019 19:07, Ice Warning , 28.9 , , 29, 28, 99, 28, 5, 7, NE, Yes,
01/20/2019 18:59, Ice Warning , 28.9 , , 29, 28, 99, 28, 4, 6, N, Yes,
01/20/2019 18:51, Ice Warning , 29.1 , , 29, 28, 99, 28, 4, 7, N, Yes,
01/20/2019 18:49, Ice Warning , 29.1 , , 29, 28, 99, 28, 4, 7, N, Yes,
01/20/2019 18:39, Ice Watch , 29.1 , , 29, 28, 99, 28, 5, 6, NE, Yes,
01/20/2019 18:36, Ice Watch , 29.1 , , 29, 28, 99, 28, 5, 6, NE, Yes,
01/20/2019 18:29, Ice Watch , 29.1 , , 29, 29, 99, 29, 4, 6, NE, Yes,
01/20/2019 18:19, Ice Watch , 29.1 , , 29, 29, 99, 29, 5, 7, NE, Yes,
01/20/2019 18:09, Ice Watch , 28.9 , , 29, 29, 99, 29, 6, 7, NE, Yes,
01/20/2019 18:06, Ice Watch , 29.1 , , 29, 29, 99, 29, 6, 7, NE, Yes,
01/20/2019 17:59, Ice Watch , 29.1 , , 29, 29, 99, 29, 6, 6, NE, Yes,
01/20/2019 17:52, Ice Watch , 29.1 , , 29, 29, 99, 29, 5, 6, NE, Yes,
01/20/2019 17:49, Ice Watch , 29.1 , , 29, 29, 99, 29, 5, 6, NE, Yes,
01/20/2019 17:39, Ice Watch , 29.1 , , 29, 29, 99, 29, 6, 6, NE, Yes,
01/20/2019 17:29, Ice Watch , 29.5 , , 29, 29, 99, 29, 6, 6, NE, Yes,
01/20/2019 17:20, Ice Watch , 29.5 , , 29, 29, 99, 29, 5, 6, NE, Yes,
01/20/2019 17:19, Ice Watch , 29.5 , , 29, 29, 99, 29, 5, 6, NE, Yes,
01/20/2019 17:09, Ice Watch , 29.7 , , 29, 29, 99, 29, 5, 6, NE, Yes,
01/20/2019 17:05, Ice Watch , 29.5 , , 29, 29, 99, 29, 5, 6, NE, Yes,
01/20/2019 16:59, Ice Watch , 29.7 , , 29, 29, 98, 29, 4, 6, NE, Yes,
01/20/2019 16:50, Ice Watch , 29.7 , , 29, 29, 97, 29, 5, 6, NE, Yes,
01/20/2019 16:49, Ice Watch , 29.7 , , 29, 29, 97, 29, 5, 6, NE, Yes,
01/20/2019 16:39, Ice Watch , 29.7 , , 29, 29, 95, 28, 3, 4, NE, Yes,
01/20/2019 16:35, Ice Watch , 29.8 , , 29, 29, 95, 28, 2, 3, NE, Yes,
01/20/2019 16:29, Ice Watch , 29.8 , , 29, 29, 94, 28, 2, 2, NE, Yes,
01/20/2019 16:20, Ice Watch , 29.8 , , 28, 30, 92, 28, 1, 2, NE, Yes,
01/20/2019 16:18, Ice Watch , 29.8 , , 28, 30, 92, 28, 2, 2, NE, Yes,
01/20/2019 16:08, Ice Watch , 29.8 , , 28, 30, 89, 28, 0, 0, SW, Yes,
01/20/2019 16:05, Ice Watch , 30 , , 28, 30, 88, 27, 0, 1, SW, Yes,
01/20/2019 15:58, Ice Watch , 30 , , 28, 30, 87, 27, 0, 2, SW, Yes,
01/20/2019 15:50, Chemically Wet , 30.2 , , 28, 31, 84, 27, 2, 2, SW, Yes,
01/20/2019 15:48, Chemically Wet , 30.2 , , 28, 31, 83, 26, 2, 2, S, Yes,
01/20/2019 15:38, Chemically Wet , 30.6 , , 28, 31, 78, 25, 2, 4, S, Yes,
01/20/2019 15:35, Ice Watch , 30.7 , , 28, 31, 76, 25, 2, 4, S, Yes,
01/20/2019 15:28, Ice Watch , 31.6 , , 28, 32, 72, 24, 2, 4, SW, Yes,
01/20/2019 15:20, Trace Moisture , 32.5 , , 28, 33, 67, 23, 2, 4, SW, Yes,
01/20/2019 15:18, Trace Moisture , 32.5 , , 28, 33, 66, 23, 0, 3, SW, Yes,
01/20/2019 15:08, Trace Moisture , 32.9 , , 28, 33, 63, 22, 1, 6, SW, Yes,
01/20/2019 15:05, Trace Moisture , 33.1 , , 28, 33, 62, 22, 4, 6, S, Yes,
01/20/2019 14:58, Trace Moisture , 33.6 , , 28, 34, 59, 22, 1, 3, W, Yes,
01/20/2019 14:50, Trace Moisture , 33.8 , , 28, 34, 59, 22, 0, 1, W, None, None
01/20/2019 14:48, Trace Moisture , 33.8 , , 28, 34, 59, 22, 1, 2, W, None, None
01/20/2019 14:38, Trace Moisture , 34.3 , , 28, 35, 58, 22, 2, 2, W, None, None
01/20/2019 14:36, Trace Moisture , 34.3 , , 28, 35, 58, 22, 2, 2, NW, None, None
01/20/2019 14:28, Trace Moisture , 34.7 , , 28, 35, 58, 22, 0, 3, SE, None, None
01/20/2019 14:21, Trace Moisture , 35.1 , , 28, 34, 58, 21, 1, 3, SW, None, None
01/20/2019 14:18, Trace Moisture , 35.1 , , 28, 35, 58, 22, 2, 2, SW, None, None
01/20/2019 14:08, Trace Moisture , 34.9 , , 28, 34, 57, 21, 0, 4, S, Yes,
01/20/2019 14:06, Trace Moisture , 34.9 , , 28, 34, 57, 21, 2, 7, SW, Yes,
01/20/2019 13:58, Trace Moisture , 34.9 , , 28, 34, 56, 20, 6, 10, S, Yes,
01/20/2019 13:51, Trace Moisture , 34.7 , , 28, 35, 54, 20, 4, 10, W, None, None
01/20/2019 13:48, Trace Moisture , 34.7 , , 28, 35, 54, 20, 7, 10, SW, None, None
01/20/2019 13:37, Trace Moisture , 34.5 , , 28, 35, 53, 20, 6, 12, S, None, None
01/20/2019 13:36, Trace Moisture , 34.3 , , 28, 35, 53, 19, 7, 12, S, None, None
01/20/2019 13:27, Trace Moisture , 34.3 , , 28, 35, 52, 19, 9, 12, S, None, None
01/20/2019 13:21, Trace Moisture , 34.3 , , 28, 36, 49, 19, 7, 11, S, None, None
01/20/2019 13:17, Trace Moisture , 34.3 , , 28, 37, 47, 19, 7, 11, SE, None, None
01/20/2019 13:07, Trace Moisture , 34.7 , , 28, 38, 43, 17, 6, 9, SE, None, None
01/20/2019 13:06, Trace Moisture , 34.9 , , 28, 38, 43, 17, 6, 10, SE, None, None
01/20/2019 12:57, Trace Moisture , 35.2 , , 28, 38, 42, 17, 10, 12, SE, None, None
01/20/2019 12:51, Trace Moisture , 34.9 , , 28, 38, 40, 16, 7, 10, SE, None, None
01/20/2019 12:47, Trace Moisture , 34.5 , , 28, 38, 40, 16, 4, 7, E, None, None
01/20/2019 12:37, Trace Moisture , 33.8 , , 28, 38, 40, 16, 3, 9, SE, None, None
01/20/2019 12:36, Trace Moisture , 33.6 , , 28, 38, 40, 16, 6, 9, SE, None, None
01/20/2019 12:27, Wet , 33.1 , , 28, 38, 40, 16, 6, 7, SE, None, None
01/20/2019 12:21, Wet , 32.7 , , 28, 38, 40, 16, 3, 7, SE, None, None
01/20/2019 12:17, Wet , 32.7 , , 28, 38, 40, 16, 4, 11, E, None, None
01/20/2019 12:07, Wet , 32.5 , , 28, 38, 40, 16, 5, 12, S, None, None
01/20/2019 12:06, Wet , 32.5 , , 28, 38, 40, 16, 6, 12, S, None, None
01/20/2019 11:57, Wet , 32.2 , , 28, 38, 40, 16, 7, 14, SW, None, None
01/20/2019 11:51, Ice Watch , 32 , , 28, 38, 42, 17, 7, 17, SW, None, None
01/20/2019 11:47, Ice Watch , 31.8 , , 28, 38, 43, 17, 12, 18, SW, None, None
01/20/2019 11:37, Ice Watch , 31.5 , , 28, 36, 48, 19, 9, 19, SW, None, None
01/20/2019 11:36, Ice Watch , 31.5 , , 28, 36, 48, 19, 9, 19, SW, None, None
01/20/2019 11:27, Ice Watch , 31.1 , , 28, 36, 52, 20, 9, 17, W, None, None
01/20/2019 11:21, Ice Warning , 30.6 , , 28, 35, 54, 20, 11, 16, W, None, None
01/20/2019 11:17, Ice Warning , 30.4 , , 28, 35, 56, 21, 7, 12, W, None, None
01/20/2019 11:07, Ice Warning , 29.7 , , 28, 34, 57, 21, 12, 14, W, None, None
01/20/2019 11:06, Ice Warning , 29.7 , , 28, 34, 58, 21, 12, 14, W, None, None
01/20/2019 10:57, Ice Watch , 29.3 , , 28, 33, 65, 22, 13, 14, W, None, None
01/20/2019 10:51, Ice Watch , 28.9 , , 28, 32, 64, 22, 12, 13, W, None, None
01/20/2019 10:47, Ice Watch , 28.4 , , 28, 33, 62, 21, 12, 13, W, None, None
01/20/2019 10:36, Ice Watch , 28 , , 28, 32, 65, 22, 6, 6, W, None, None
01/20/2019 10:36, Ice Watch , 28 , , 28, 32, 65, 22, 6, 6, W, None, None
01/20/2019 10:26, Ice Watch , 27.7 , , 28, 32, 63, 21, 3, 4, W, None, None
01/20/2019 10:21, Ice Watch , 27.5 , , 28, 32, 61, 21, 4, 4, SW, None, None
01/20/2019 10:16, Ice Watch , 27.3 , , 28, 32, 62, 20, 3, 4, SW, None, None
01/20/2019 10:06, Ice Watch , 27 , , 28, 31, 65, 20, 2, 3, W, None, None
01/20/2019 10:06, Ice Watch , 27 , , 28, 30, 65, 20, 2, 3, W, None, None
01/20/2019 09:56, Ice Watch , 26.8 , , 28, 30, 65, 20, 2, 3, W, None, None
01/20/2019 09:51, Ice Watch , 26.4 , , 28, 30, 66, 20, 2, 4, W, None, None
01/20/2019 09:46, Ice Watch , 26.1 , , 28, 30, 66, 20, 4, 4, W, None, None
01/20/2019 09:36, Ice Watch , 25.9 , , 28, 30, 66, 20, 3, 3, W, None, None
01/20/2019 09:36, Ice Watch , 25.9 , , 28, 30, 66, 20, 3, 3, W, None, None
01/20/2019 09:26, Ice Watch , 25.7 , , 28, 30, 65, 20, 2, 3, W, None, None
01/20/2019 09:21, Ice Watch , 25.3 , , 28, 29, 66, 20, 2, 3, W, None, None
01/20/2019 09:16, Ice Watch , 25.2 , , 28, 29, 67, 20, 2, 4, W, None, None
01/20/2019 09:06, Ice Watch , 24.6 , , 28, 29, 67, 19, 3, 3, W, None, None
01/20/2019 09:06, Ice Watch , 24.6 , , 28, 29, 67, 19, 3, 3, W, None, None
01/20/2019 08:56, Ice Watch , 24.3 , , 28, 28, 68, 19, 2, 2, SW, None, None
01/20/2019 08:51, Ice Watch , 24.3 , , 28, 28, 67, 19, 2, 6, SW, None, None
01/20/2019 08:46, Ice Watch , 24.1 , , 28, 29, 66, 19, 3, 6, SW, None, None
01/20/2019 08:36, Ice Watch , 23.9 , , 28, 29, 66, 20, 2, 4, W, None, None
01/20/2019 08:36, Ice Watch , 23.9 , , 28, 29, 66, 20, 2, 4, W, None, None
01/20/2019 08:26, Ice Watch , 23.5 , , 28, 29, 67, 20, 4, 4, W, None, None
01/20/2019 08:21, Ice Watch , 23.5 , , 28, 28, 68, 19, 4, 4, W, None, None
01/20/2019 08:16, Ice Watch , 23.4 , , 28, 28, 69, 19, 3, 4, W, None, None
01/20/2019 08:06, Ice Watch , 23.4 , , 28, 28, 69, 19, 3, 4, W, None, None
01/20/2019 08:06, Ice Watch , 23.4 , , 28, 28, 69, 19, 3, 4, W, None, None
01/20/2019 07:56, Ice Watch , 23.2 , , 28, 27, 72, 19, 3, 4, W, None, None
01/20/2019 07:51, Ice Watch , 23.2 , , 28, 26, 72, 19, 2, 4, W, None, None
01/20/2019 07:46, Ice Watch , 23.2 , , 28, 26, 72, 19, 4, 4, W, None, None
01/20/2019 07:36, Ice Watch , 23 , , 28, 26, 72, 19, 2, 2, W, None, None
01/20/2019 07:36, Ice Watch , 23 , , 28, 26, 72, 19, 2, 2, W, None, None
01/20/2019 07:25, Ice Watch , 22.6 , , 28, 27, 71, 19, 1, 2, NE, None, None
01/20/2019 07:21, Ice Watch , 22.8 , , 28, 26, 71, 19, 1, 6, E, None, None
01/20/2019 07:15, Ice Watch , 22.8 , , 28, 27, 71, 19, 2, 9, NE, None, None
01/20/2019 07:06, Ice Watch , 22.5 , , 28, 26, 72, 18, 2, 4, W, None, None
01/20/2019 07:05, Ice Watch , 22.5 , , 28, 26, 72, 18, 3, 4, W, None, None
01/20/2019 06:55, Ice Watch , 22.5 , , 28, 24, 73, 17, 6, 6, W, None, None
01/20/2019 06:51, Ice Watch , 22.5 , , 28, 25, 72, 17, 5, 6, W, None, None
01/20/2019 06:45, Ice Watch , 22.5 , , 28, 25, 71, 17, 6, 6, W, None, None
01/20/2019 06:36, Ice Watch , 22.5 , , 28, 26, 69, 18, 4, 7, SW, None, None
01/20/2019 06:35, Ice Watch , 22.5 , , 28, 26, 69, 18, 4, 7, SW, None, None
01/20/2019 06:25, Ice Watch , 22.6 , , 28, 27, 67, 17, 4, 5, SW, None, None
01/20/2019 06:21, Ice Watch , 23 , , 28, 27, 67, 17, 2, 4, W, None, None
01/20/2019 06:15, Ice Watch , 23.4 , , 28, 27, 66, 17, 4, 7, SE, None, None
01/20/2019 06:06, Ice Watch , 23.4 , , 28, 29, 63, 18, 4, 7, NE, None, None
01/20/2019 06:05, Ice Watch , 23.4 , , 28, 29, 63, 18, 2, 5, N, None, None
01/20/2019 05:55, Ice Watch , 23.2 , , 28, 29, 62, 18, 2, 6, NW, None, None
01/20/2019 05:51, Ice Watch , 23.4 , , 28, 29, 61, 18, 3, 6, NW, None, None
01/20/2019 05:45, Ice Watch , 23.2 , , 28, 30, 61, 18, 4, 5, NW, None, None
01/20/2019 05:36, Ice Watch , 22.8 , , 28, 29, 62, 18, 2, 4, NW, None, None
01/20/2019 05:35, Ice Watch , 22.8 , , 28, 29, 62, 18, 2, 4, NW, None, None
01/20/2019 05:25, Ice Watch , 22.5 , , 28, 27, 63, 17, 3, 7, NE, None, None
01/20/2019 05:21, Ice Watch , 22.6 , , 28, 28, 63, 17, 4, 10, NE, None, None
01/20/2019 05:15, Ice Watch , 22.8 , , 28, 28, 63, 17, 7, 10, E, None, None
01/20/2019 05:06, Ice Watch , 22.8 , , 29, 29, 62, 18, 4, 9, NE, None, None
01/20/2019 05:05, Ice Watch , 22.8 , , 29, 29, 61, 18, 5, 9, N, None, None
01/20/2019 04:55, Ice Watch , 23 , , 29, 29, 61, 18, 8, 12, NW, None, None
01/20/2019 04:51, Ice Watch , 23.2 , , 28, 30, 61, 18, 9, 14, NW, None, None
01/20/2019 04:45, Ice Watch , 23.2 , , 29, 30, 60, 18, 12, 14, NW, None, None
01/20/2019 04:36, Ice Watch , 23.2 , , 29, 31, 59, 18, 11, 13, NW, None, None
01/20/2019 04:35, Ice Watch , 23 , , 29, 31, 58, 18, 11, 12, NW, None, None
01/20/2019 04:24, Ice Watch , 22.8 , , 29, 30, 59, 18, 9, 11, N, None, None
01/20/2019 04:21, Ice Watch , 23 , , 29, 30, 59, 18, 9, 11, N, None, None
01/20/2019 04:14, Ice Watch , 22.8 , , 29, 30, 59, 17, 9, 10, N, None, None
01/20/2019 04:06, Ice Watch , 22.8 , , 29, 31, 59, 18, 6, 9, N, None, None
01/20/2019 04:04, Ice Watch , 22.8 , , 29, 31, 59, 18, 5, 9, N, None, None
01/20/2019 03:54, Ice Watch , 22.8 , , 29, 30, 60, 18, 2, 4, N, None, None
01/20/2019 03:51, Ice Watch , 23 , , 29, 30, 60, 18, 3, 5, NE, None, None
01/20/2019 03:44, Ice Watch , 23.4 , , 29, 30, 61, 18, 3, 6, E, None, None
01/20/2019 03:36, Ice Watch , 23.4 , , 29, 29, 61, 18, 1, 4, E, None, None
01/20/2019 03:34, Ice Watch , 23.4 , , 29, 29, 60, 18, 1, 4, SE, None, None
01/20/2019 03:24, Ice Watch , 23.9 , , 29, 30, 60, 18, 6, 10, NW, None, None
01/20/2019 03:21, Ice Watch , 24.1 , , 29, 30, 60, 18, 4, 11, NW, None, None
01/20/2019 03:14, Ice Watch , 24.4 , , 29, 30, 59, 18, 8, 14, NW, None, None
01/20/2019 03:06, Ice Watch , 24.8 , , 29, 31, 59, 18, 10, 16, NW, None, None
01/20/2019 03:04, Ice Watch , 24.8 , , 29, 31, 59, 18, 11, 16, NW, None, None
01/20/2019 02:54, Ice Watch , 24.8 , , 29, 31, 59, 18, 12, 15, NW, None, None
01/20/2019 02:51, Ice Watch , 25 , , 29, 31, 59, 18, 12, 15, NW, None, None
01/20/2019 02:44, Ice Watch , 25.2 , , 29, 31, 59, 19, 11, 13, NW, None, None
01/20/2019 02:36, Ice Watch , 25.5 , , 29, 31, 58, 19, 10, 13, NW, None, None
01/20/2019 02:34, Ice Watch , 25.3 , , 29, 32, 57, 19, 10, 13, NW, None, None
01/20/2019 02:24, Ice Watch , 25.3 , , 29, 32, 57, 19, 9, 12, NW, None, None
01/20/2019 02:21, Ice Watch , 25.3 , , 29, 32, 57, 19, 9, 11, NW, None, None
01/20/2019 02:14, Ice Watch , 25.5 , , 29, 32, 58, 19, 8, 10, NW, None, None
01/20/2019 02:06, Ice Watch , 25.3 , , 29, 32, 59, 19, 7, 11, NW, None, None
01/20/2019 02:04, Ice Watch , 25.3 , , 29, 31, 59, 19, 7, 10, NW, None, None
01/20/2019 01:54, Ice Watch , 25.7 , , 29, 32, 59, 19, 8, 13, NW, None, None
01/20/2019 01:51, Ice Watch , 25.7 , , 29, 32, 59, 19, 9, 13, NW, None, None
01/20/2019 01:43, Ice Watch , 25.7 , , 29, 32, 59, 19, 10, 13, NW, None, None
01/20/2019 01:36, Ice Watch , 25.7 , , 29, 31, 60, 19, 7, 11, NW, None, None
01/20/2019 01:33, Ice Watch , 25.7 , , 29, 31, 60, 19, 7, 11, N, None, None
01/20/2019 01:23, Ice Watch , 25.7 , , 29, 31, 60, 19, 7, 11, N, None, None
01/20/2019 01:21, Ice Watch , 25.7 , , 29, 31, 60, 19, 7, 11, N, None, None
01/20/2019 01:13, Ice Watch , 25.7 , , 29, 31, 60, 19, 9, 12, N, None, None
01/20/2019 01:06, Ice Watch , 25.7 , , 29, 31, 61, 19, 5, 11, N, None, None
01/20/2019 01:03, Ice Watch , 25.9 , , 29, 31, 60, 20, 7, 11, N, None, None
01/20/2019 00:53, Ice Watch , 25.9 , , 29, 31, 60, 20, 8, 13, N, None, None
01/20/2019 00:51, Ice Watch , 25.9 , , 29, 31, 60, 20, 9, 13, N, None, None
01/20/2019 00:43, Ice Watch , 25.9 , , 29, 31, 61, 20, 11, 12, N, None, None
01/20/2019 00:36, Ice Watch , 25.9 , , 29, 32, 60, 19, 6, 10, N, None, None
01/20/2019 00:33, Ice Watch , 25.9 , , 29, 32, 59, 20, 6, 11, N, None, None
01/20/2019 00:23, Ice Watch , 26.2 , , 29, 33, 58, 20, 7, 15, NW, None, None
01/20/2019 00:21, Ice Watch , 26.4 , , 29, 33, 58, 20, 7, 15, NW, None, None
01/20/2019 00:13, Ice Watch , 26.1 , , 29, 33, 58, 20, 11, 16, NW, None, None
01/20/2019 00:06, Ice Watch , 26.4 , , 29, 33, 57, 20, 11, 19, NW, None, None
01/20/2019 00:03, Ice Watch , 26.4 , , 29, 34, 57, 20, 14, 22, NW, None, None
01/19/2019 23:53, Ice Watch , 26.1 , , 29, 33, 59, 20, 14, 18, NW, None, None
01/19/2019 23:51, Ice Watch , 26.1 , , 29, 33, 59, 20, 14, 18, NW, None, None
01/19/2019 23:43, Ice Watch , 26.2 , , 29, 34, 57, 20, 16, 22, NW, None, None
01/19/2019 23:36, Ice Watch , 25.9 , , 29, 33, 58, 20, 16, 19, NW, None, None
01/19/2019 23:33, Ice Watch , 25.7 , , 29, 33, 58, 20, 15, 18, NW, None, None
01/19/2019 23:23, Ice Watch , 25.5 , , 29, 33, 57, 19, 12, 16, NW, None, None
01/19/2019 23:21, Ice Watch , 25.7 , , 29, 33, 57, 19, 14, 16, NW, None, None
Change End Date:

Copyright © 1998-2015 Vaisala, Inc.
All Rights Reserved
Send comments about the data to:
SCAN Web ® is a registered trademark of Vaisala, Inc.
SCAN Web Version 6.0